createdAt,value
2022-11-13T00:00:22.152Z,0
2022-11-13T00:01:31.320Z,0
2022-11-13T00:02:39.528Z,0
2022-11-13T00:03:48.695Z,0
2022-11-13T00:04:56.885Z,0
2022-11-13T00:07:15.227Z,0
2022-11-13T00:08:24.408Z,0
2022-11-13T00:09:33.569Z,0
2022-11-13T00:10:42.762Z,0
2022-11-13T00:11:51.915Z,0
2022-11-13T00:13:01.081Z,0
2022-11-13T00:14:10.262Z,0
2022-11-13T00:15:19.464Z,0
2022-11-13T00:16:28.687Z,0
2022-11-13T00:17:37.790Z,0
2022-11-13T00:18:46.954Z,0
2022-11-13T00:19:55.154Z,0
2022-11-13T00:21:04.325Z,0
2022-11-13T00:22:13.492Z,0
2022-11-13T00:23:22.673Z,0
2022-11-13T00:24:31.834Z,0
2022-11-13T00:25:41.031Z,0
2022-11-13T00:26:50.183Z,0
2022-11-13T00:27:59.458Z,0
2022-11-13T00:29:08.555Z,0
2022-11-13T00:30:16.726Z,0
2022-11-13T00:31:24.982Z,0
2022-11-13T00:32:34.140Z,0
2022-11-13T00:33:42.293Z,0
2022-11-13T00:34:50.468Z,0
2022-11-13T00:35:59.643Z,0
2022-11-13T00:37:08.882Z,0
2022-11-13T00:38:17.981Z,0
2022-11-13T00:39:27.298Z,0
2022-11-13T00:40:36.357Z,0
2022-11-13T00:41:45.506Z,0
2022-11-13T00:42:54.783Z,0
2022-11-13T00:44:03.859Z,0
2022-11-13T00:45:13.065Z,0
2022-11-13T00:46:22.242Z,0
2022-11-13T00:47:31.362Z,0
2022-11-13T00:48:40.542Z,0
2022-11-13T00:49:48.725Z,0
2022-11-13T00:50:57.909Z,0
2022-11-13T00:52:07.071Z,0
2022-11-13T00:53:16.247Z,0
2022-11-13T00:54:25.425Z,0
2022-11-13T00:55:34.597Z,0
2022-11-13T00:56:43.773Z,0
2022-11-13T00:57:52.013Z,0
2022-11-13T00:59:00.156Z,0
2022-11-13T01:00:08.341Z,0
2022-11-13T01:01:16.576Z,0
2022-11-13T01:02:25.708Z,0
2022-11-13T01:03:34.882Z,0
2022-11-13T01:04:44.055Z,0
2022-11-13T01:05:53.222Z,0
2022-11-13T01:07:02.394Z,0
2022-11-13T01:08:11.565Z,0
2022-11-13T01:09:20.747Z,0
2022-11-13T01:10:29.918Z,0
2022-11-13T01:11:39.176Z,0
2022-11-13T01:12:48.268Z,0
2022-11-13T01:13:57.439Z,0
2022-11-13T01:15:06.612Z,0
2022-11-13T01:16:14.801Z,0
2022-11-13T01:17:23.975Z,0
2022-11-13T01:18:33.141Z,0
2022-11-13T01:19:42.329Z,0
2022-11-13T01:20:51.554Z,0
2022-11-13T01:22:00.656Z,0
2022-11-13T01:23:09.837Z,0
2022-11-13T01:24:18.071Z,0
2022-11-13T01:25:26.223Z,0
2022-11-13T01:26:35.395Z,0
2022-11-13T01:27:43.588Z,0
2022-11-13T01:28:51.780Z,0
2022-11-13T01:30:00.962Z,0
2022-11-13T01:31:10.220Z,0
2022-11-13T01:32:19.283Z,0
2022-11-13T01:33:28.475Z,0
2022-11-13T01:34:37.640Z,0
2022-11-13T01:35:46.815Z,0
2022-11-13T01:36:55.991Z,0
2022-11-13T01:38:05.154Z,0
2022-11-13T01:39:14.361Z,0
2022-11-13T01:40:23.514Z,0
2022-11-13T01:41:32.689Z,0
2022-11-13T01:42:41.995Z,0
2022-11-13T01:43:51.016Z,0
2022-11-13T01:44:59.206Z,0
2022-11-13T01:46:08.377Z,0
2022-11-13T01:48:26.732Z,0
2022-11-13T01:49:35.950Z,0
2022-11-13T01:50:45.113Z,0
2022-11-13T01:51:54.244Z,0
2022-11-13T01:53:02.467Z,0
2022-11-13T01:54:10.627Z,0
2022-11-13T01:55:19.802Z,0
2022-11-13T01:56:28.971Z,0
2022-11-13T01:57:37.171Z,0
2022-11-13T01:58:45.359Z,0
2022-11-13T01:59:54.536Z,0
2022-11-13T02:01:03.695Z,0
2022-11-13T02:02:12.886Z,0
2022-11-13T02:03:22.054Z,0
2022-11-13T02:04:31.288Z,0
2022-11-13T02:05:40.420Z,0
2022-11-13T02:06:49.570Z,0
2022-11-13T02:07:58.743Z,0
2022-11-13T02:09:07.916Z,0
2022-11-13T02:10:17.083Z,0
2022-11-13T02:11:26.263Z,0
2022-11-13T02:12:35.448Z,0
2022-11-13T02:13:43.625Z,0
2022-11-13T02:14:52.843Z,0
2022-11-13T02:16:02.015Z,0
2022-11-13T02:17:11.152Z,0
2022-11-13T02:18:20.308Z,0
2022-11-13T02:19:29.481Z,0
2022-11-13T02:20:38.658Z,0
2022-11-13T02:21:46.865Z,0
2022-11-13T02:22:55.047Z,0
2022-11-13T02:24:03.234Z,0
2022-11-13T02:25:11.421Z,0
2022-11-13T02:26:20.601Z,0
2022-11-13T02:27:29.853Z,0
2022-11-13T02:28:38.950Z,0
2022-11-13T02:29:48.116Z,0
2022-11-13T02:30:57.289Z,0
2022-11-13T02:32:06.458Z,0
2022-11-13T02:33:15.637Z,0
2022-11-13T02:34:24.799Z,0
2022-11-13T02:35:33.977Z,0
2022-11-13T02:36:43.158Z,0
2022-11-13T02:39:01.496Z,0
2022-11-13T02:40:09.680Z,0
2022-11-13T02:41:18.852Z,0
2022-11-13T02:42:28.036Z,0
2022-11-13T02:43:37.203Z,0
2022-11-13T02:44:46.385Z,0
2022-11-13T02:45:55.603Z,0
2022-11-13T02:47:04.734Z,0
2022-11-13T02:48:13.899Z,0
2022-11-13T02:49:22.088Z,0
2022-11-13T02:50:30.286Z,0
2022-11-13T02:51:39.466Z,0
2022-11-13T02:52:48.624Z,0
2022-11-13T02:53:56.899Z,0
2022-11-13T02:55:05.009Z,0
2022-11-13T02:56:14.172Z,0
2022-11-13T02:57:23.357Z,0
2022-11-13T02:58:32.528Z,0
2022-11-13T02:59:41.714Z,0
2022-11-13T03:00:50.870Z,0
2022-11-13T03:02:00.050Z,0
2022-11-13T03:03:08.241Z,0
2022-11-13T03:04:17.418Z,0
2022-11-13T03:05:26.575Z,0
2022-11-13T03:06:35.749Z,0
2022-11-13T03:07:45.116Z,0
2022-11-13T03:08:54.132Z,0
2022-11-13T03:10:03.344Z,0
2022-11-13T03:11:12.533Z,0
2022-11-13T03:12:21.616Z,0
2022-11-13T03:13:30.984Z,0
2022-11-13T03:14:40.040Z,0
2022-11-13T03:15:49.256Z,0
2022-11-13T03:16:58.501Z,0
2022-11-13T03:18:06.566Z,0
2022-11-13T03:19:14.725Z,0
2022-11-13T03:20:22.881Z,0
2022-11-13T03:21:31.071Z,0
2022-11-13T03:22:40.296Z,0
2022-11-13T03:23:49.438Z,0
2022-11-13T03:24:58.596Z,0
2022-11-13T03:26:07.777Z,0
2022-11-13T03:27:16.935Z,0
2022-11-13T03:28:26.119Z,0
2022-11-13T03:29:35.286Z,0
2022-11-13T03:30:44.473Z,0
2022-11-13T03:31:53.627Z,0
2022-11-13T03:33:02.803Z,0
2022-11-13T03:34:11.973Z,0
2022-11-13T03:35:21.180Z,0
2022-11-13T03:36:30.376Z,0
2022-11-13T03:37:38.510Z,0
2022-11-13T03:38:47.685Z,0
2022-11-13T03:39:56.876Z,0
2022-11-13T03:41:06.041Z,0
2022-11-13T03:42:15.197Z,0
2022-11-13T03:43:24.380Z,0
2022-11-13T03:44:32.578Z,0
2022-11-13T03:45:40.759Z,0
2022-11-13T03:46:49.936Z,0
2022-11-13T03:47:59.099Z,0
2022-11-13T03:49:08.266Z,0
2022-11-13T03:50:16.485Z,0
2022-11-13T03:51:24.658Z,0
2022-11-13T03:52:33.833Z,0
2022-11-13T03:53:43.000Z,0
2022-11-13T03:54:52.175Z,0
2022-11-13T03:56:01.373Z,0
2022-11-13T03:57:10.632Z,0
2022-11-13T03:58:19.686Z,0
2022-11-13T03:59:28.941Z,0
2022-11-13T04:00:38.041Z,0
2022-11-13T04:01:47.221Z,0
2022-11-13T04:02:56.506Z,0
2022-11-13T04:04:05.558Z,0
2022-11-13T04:05:14.749Z,0
2022-11-13T04:06:23.024Z,0
2022-11-13T04:07:32.151Z,0
2022-11-13T04:08:41.267Z,0
2022-11-13T04:09:50.436Z,0
2022-11-13T04:10:59.609Z,0
2022-11-13T04:12:08.846Z,0
2022-11-13T04:13:17.962Z,0
2022-11-13T04:14:26.273Z,0
2022-11-13T04:15:34.337Z,0
2022-11-13T04:16:42.527Z,0
2022-11-13T04:17:50.719Z,0
2022-11-13T04:18:59.896Z,0
2022-11-13T04:20:09.079Z,0
2022-11-13T04:21:18.248Z,0
2022-11-13T04:22:27.414Z,0
2022-11-13T04:23:36.589Z,0
2022-11-13T04:24:45.757Z,0
2022-11-13T04:25:54.926Z,0
2022-11-13T04:27:04.103Z,0
2022-11-13T04:28:13.268Z,0
2022-11-13T04:29:22.453Z,0
2022-11-13T04:30:31.694Z,0
2022-11-13T04:31:40.810Z,0
2022-11-13T04:32:48.991Z,0
2022-11-13T04:33:58.155Z,0
2022-11-13T04:35:07.401Z,0
2022-11-13T04:36:16.535Z,0
2022-11-13T04:37:25.728Z,0
2022-11-13T04:38:34.847Z,0
2022-11-13T04:39:44.062Z,0
2022-11-13T04:40:52.305Z,0
2022-11-13T04:42:00.416Z,0
2022-11-13T04:43:09.583Z,0
2022-11-13T04:44:17.805Z,0
2022-11-13T04:45:25.968Z,0
2022-11-13T04:46:35.148Z,0
2022-11-13T04:47:44.310Z,0
2022-11-13T04:48:53.484Z,0
2022-11-13T04:50:02.658Z,0
2022-11-13T04:51:11.833Z,0
2022-11-13T04:52:21.013Z,0
2022-11-13T04:53:30.179Z,0
2022-11-13T04:54:39.355Z,0
2022-11-13T04:55:48.535Z,0
2022-11-13T04:56:57.687Z,0
2022-11-13T04:58:06.863Z,0
2022-11-13T04:59:16.038Z,0
2022-11-13T05:00:24.234Z,0
2022-11-13T05:01:33.405Z,0
2022-11-13T05:02:42.654Z,0
2022-11-13T05:03:51.753Z,0
2022-11-13T05:05:00.976Z,0
2022-11-13T05:06:10.135Z,0
2022-11-13T05:07:19.265Z,0
2022-11-13T05:08:27.469Z,0
2022-11-13T05:09:35.655Z,0
2022-11-13T05:10:44.858Z,0
2022-11-13T05:11:54.014Z,0
2022-11-13T05:13:02.195Z,0
2022-11-13T05:14:10.400Z,0
2022-11-13T05:15:19.550Z,0
2022-11-13T05:16:28.729Z,0
2022-11-13T05:17:38.013Z,0
2022-11-13T05:18:47.081Z,0
2022-11-13T05:19:56.240Z,0
2022-11-13T05:21:05.434Z,0
2022-11-13T05:22:14.656Z,0
2022-11-13T05:23:23.784Z,0
2022-11-13T05:24:32.947Z,0
2022-11-13T05:25:42.118Z,0
2022-11-13T05:26:51.280Z,0
2022-11-13T05:28:00.461Z,0
2022-11-13T05:29:08.646Z,0
2022-11-13T05:30:17.821Z,0
2022-11-13T05:31:27.084Z,0
2022-11-13T05:32:36.277Z,0
2022-11-13T05:33:45.347Z,0
2022-11-13T05:34:54.510Z,0
2022-11-13T05:36:03.685Z,0
2022-11-13T05:37:11.888Z,0
2022-11-13T05:38:20.088Z,0
2022-11-13T05:39:29.234Z,0
2022-11-13T05:40:38.408Z,0
2022-11-13T05:41:47.586Z,0
2022-11-13T05:42:56.757Z,0
2022-11-13T05:44:05.936Z,0
2022-11-13T05:45:15.106Z,0
2022-11-13T05:46:24.373Z,0
2022-11-13T05:47:33.453Z,0
2022-11-13T05:48:42.629Z,0
2022-11-13T05:49:51.797Z,0
2022-11-13T05:51:00.971Z,0
2022-11-13T05:52:10.146Z,0
2022-11-13T05:53:18.340Z,0
2022-11-13T05:54:27.510Z,0
2022-11-13T05:55:36.711Z,0
2022-11-13T05:56:45.854Z,0
2022-11-13T05:57:55.028Z,0
2022-11-13T05:59:04.202Z,0
2022-11-13T06:00:13.373Z,0
2022-11-13T06:01:21.612Z,0
2022-11-13T06:02:29.749Z,0
2022-11-13T06:03:37.962Z,0
2022-11-13T06:04:46.132Z,0
2022-11-13T06:05:55.332Z,0
2022-11-13T06:07:04.489Z,0
2022-11-13T06:08:13.658Z,0
2022-11-13T06:09:22.832Z,0
2022-11-13T06:10:32.002Z,0
2022-11-13T06:11:41.170Z,0
2022-11-13T06:12:50.355Z,0
2022-11-13T06:13:59.523Z,0
2022-11-13T06:15:08.697Z,0
2022-11-13T06:16:17.867Z,0
2022-11-13T06:17:27.040Z,0
2022-11-13T06:18:36.227Z,0
2022-11-13T06:19:45.394Z,0
2022-11-13T06:20:53.584Z,0
2022-11-13T06:22:02.740Z,0
2022-11-13T06:23:11.922Z,0
2022-11-13T06:24:21.125Z,0
2022-11-13T06:25:30.269Z,0
2022-11-13T06:26:39.453Z,0
2022-11-13T06:27:47.635Z,0
2022-11-13T06:28:55.818Z,0
2022-11-13T06:30:04.029Z,0
2022-11-13T06:31:12.211Z,0
2022-11-13T06:32:21.506Z,0
2022-11-13T06:33:30.556Z,0
2022-11-13T06:34:39.727Z,0
2022-11-13T06:35:48.906Z,0
2022-11-13T06:36:58.201Z,0
2022-11-13T06:38:07.249Z,0
2022-11-13T06:39:16.441Z,0
2022-11-13T06:40:25.687Z,5
2022-11-13T06:41:34.776Z,5
2022-11-13T06:42:43.950Z,5
2022-11-13T06:43:53.156Z,5
2022-11-13T06:45:02.291Z,5
2022-11-13T06:46:10.472Z,5
2022-11-13T06:47:19.657Z,5
2022-11-13T06:48:28.817Z,5
2022-11-13T06:49:37.992Z,5
2022-11-13T06:50:47.175Z,5
2022-11-13T06:51:56.356Z,11
2022-11-13T06:53:05.511Z,11
2022-11-13T06:54:13.715Z,11
2022-11-13T06:55:21.910Z,11
2022-11-13T06:56:30.156Z,11
2022-11-13T06:57:38.296Z,11
2022-11-13T06:58:47.465Z,11
2022-11-13T06:59:56.634Z,16
2022-11-13T07:01:05.803Z,16
2022-11-13T07:02:15.029Z,16
2022-11-13T07:03:24.155Z,16
2022-11-13T07:04:33.331Z,22
2022-11-13T07:05:42.530Z,22
2022-11-13T07:06:51.668Z,22
2022-11-13T07:08:00.860Z,22
2022-11-13T07:09:10.073Z,22
2022-11-13T07:10:19.196Z,22
2022-11-13T07:11:28.363Z,22
2022-11-13T07:12:36.547Z,28
2022-11-13T07:13:45.729Z,28
2022-11-13T07:14:54.981Z,28
2022-11-13T07:16:04.100Z,28
2022-11-13T07:17:13.251Z,33
2022-11-13T07:18:22.422Z,39
2022-11-13T07:19:31.587Z,39
2022-11-13T07:20:39.788Z,39
2022-11-13T07:21:47.973Z,45
2022-11-13T07:22:56.248Z,45
2022-11-13T07:24:04.421Z,45
2022-11-13T07:25:13.544Z,45
2022-11-13T07:26:22.718Z,39
2022-11-13T07:27:31.888Z,45
2022-11-13T07:28:41.064Z,50
2022-11-13T07:29:50.224Z,50
2022-11-13T07:30:59.392Z,56
2022-11-13T07:32:08.736Z,61
2022-11-13T07:33:17.777Z,61
2022-11-13T07:34:26.966Z,56
2022-11-13T07:35:36.086Z,61
2022-11-13T07:36:45.271Z,67
2022-11-13T07:37:54.577Z,67
2022-11-13T07:39:02.722Z,67
2022-11-13T07:40:11.819Z,73
2022-11-13T07:41:21.111Z,73
2022-11-13T07:42:30.138Z,67
2022-11-13T07:43:39.318Z,73
2022-11-13T07:44:48.486Z,78
2022-11-13T07:45:57.666Z,78
2022-11-13T07:47:05.852Z,84
2022-11-13T07:48:14.040Z,84
2022-11-13T07:49:23.287Z,90
2022-11-13T07:50:31.410Z,90
2022-11-13T07:51:39.641Z,90
2022-11-13T07:52:48.774Z,90
2022-11-13T07:53:57.953Z,95
2022-11-13T07:55:07.115Z,95
2022-11-13T07:56:16.303Z,95
2022-11-13T07:57:25.457Z,90
2022-11-13T07:58:34.664Z,90
2022-11-13T07:59:43.791Z,90
2022-11-13T08:00:53.018Z,95
2022-11-13T08:02:02.192Z,95
2022-11-13T08:03:11.443Z,101
2022-11-13T08:04:20.640Z,101
2022-11-13T08:05:29.833Z,101
2022-11-13T08:06:38.840Z,106
2022-11-13T08:07:47.029Z,106
2022-11-13T08:08:56.208Z,112
2022-11-13T08:10:05.480Z,112
2022-11-13T08:11:14.599Z,112
2022-11-13T08:12:23.760Z,118
2022-11-13T08:13:32.908Z,118
2022-11-13T08:14:41.142Z,118
2022-11-13T08:15:49.280Z,118
2022-11-13T08:16:57.470Z,118
2022-11-13T08:18:05.698Z,118
2022-11-13T08:19:14.835Z,123
2022-11-13T08:20:23.999Z,123
2022-11-13T08:21:33.179Z,129
2022-11-13T08:22:42.355Z,129
2022-11-13T08:23:51.520Z,129
2022-11-13T08:25:00.692Z,129
2022-11-13T08:26:09.869Z,135
2022-11-13T08:27:19.033Z,140
2022-11-13T08:28:28.218Z,140
2022-11-13T08:29:37.395Z,140
2022-11-13T08:30:46.554Z,140
2022-11-13T08:31:55.731Z,135
2022-11-13T08:33:03.912Z,140
2022-11-13T08:34:13.083Z,140
2022-11-13T08:35:22.258Z,146
2022-11-13T08:36:31.432Z,151
2022-11-13T08:37:40.601Z,151
2022-11-13T08:38:49.806Z,151
2022-11-13T08:39:58.944Z,151
2022-11-13T08:41:07.135Z,146
2022-11-13T08:42:15.333Z,146
2022-11-13T08:43:24.494Z,146
2022-11-13T08:44:33.678Z,151
2022-11-13T08:45:41.875Z,157
2022-11-13T08:46:50.088Z,157
2022-11-13T08:47:59.234Z,163
2022-11-13T08:49:08.408Z,163
2022-11-13T08:50:17.554Z,163
2022-11-13T08:51:26.738Z,163
2022-11-13T08:52:35.916Z,168
2022-11-13T08:53:45.087Z,174
2022-11-13T08:54:54.301Z,180
2022-11-13T08:56:03.437Z,185
2022-11-13T08:57:12.639Z,185
2022-11-13T08:58:21.837Z,191
2022-11-13T08:59:30.975Z,196
2022-11-13T09:00:40.229Z,196
2022-11-13T09:01:48.331Z,208
2022-11-13T09:02:57.589Z,208
2022-11-13T09:04:06.712Z,202
2022-11-13T09:05:15.848Z,191
2022-11-13T09:06:25.002Z,180
2022-11-13T09:07:34.165Z,185
2022-11-13T09:08:43.376Z,213
2022-11-13T09:09:51.545Z,253
2022-11-13T09:10:59.728Z,298
2022-11-13T09:12:08.962Z,331
2022-11-13T09:13:17.099Z,326
2022-11-13T09:14:25.276Z,309
2022-11-13T09:15:34.460Z,264
2022-11-13T09:16:43.650Z,236
2022-11-13T09:17:52.796Z,230
2022-11-13T09:19:01.981Z,230
2022-11-13T09:20:11.148Z,241
2022-11-13T09:21:20.311Z,247
2022-11-13T09:22:29.519Z,253
2022-11-13T09:23:38.673Z,258
2022-11-13T09:24:47.828Z,270
2022-11-13T09:25:57.093Z,292
2022-11-13T09:27:06.184Z,264
2022-11-13T09:28:15.353Z,225
2022-11-13T09:29:23.561Z,196
2022-11-13T09:30:32.699Z,208
2022-11-13T09:31:41.895Z,270
2022-11-13T09:32:51.063Z,298
2022-11-13T09:34:00.240Z,286
2022-11-13T09:35:09.446Z,258
2022-11-13T09:36:18.559Z,241
2022-11-13T09:37:26.769Z,275
2022-11-13T09:38:34.945Z,208
2022-11-13T09:39:43.141Z,185
2022-11-13T09:40:51.335Z,236
2022-11-13T09:42:00.527Z,168
2022-11-13T09:43:09.673Z,191
2022-11-13T09:44:18.847Z,281
2022-11-13T09:45:28.019Z,258
2022-11-13T09:46:37.187Z,253
2022-11-13T09:47:46.360Z,264
2022-11-13T09:48:55.532Z,281
2022-11-13T09:50:04.701Z,275
2022-11-13T09:51:13.871Z,270
2022-11-13T09:52:23.043Z,258
2022-11-13T09:53:32.240Z,264
2022-11-13T09:54:41.398Z,258
2022-11-13T09:55:49.588Z,247
2022-11-13T09:56:58.749Z,253
2022-11-13T09:58:07.977Z,247
2022-11-13T09:59:17.096Z,236
2022-11-13T10:00:26.269Z,241
2022-11-13T10:01:35.441Z,241
2022-11-13T10:02:44.623Z,247
2022-11-13T10:03:52.808Z,253
2022-11-13T10:05:00.995Z,247
2022-11-13T10:06:10.230Z,247
2022-11-13T10:07:19.332Z,241
2022-11-13T10:08:27.535Z,247
2022-11-13T10:09:35.722Z,236
2022-11-13T10:10:44.921Z,230
2022-11-13T10:11:54.059Z,225
2022-11-13T10:13:03.247Z,225
2022-11-13T10:14:12.417Z,219
2022-11-13T10:15:21.580Z,219
2022-11-13T10:16:30.752Z,225
2022-11-13T10:17:39.937Z,225
2022-11-13T10:18:49.107Z,219
2022-11-13T10:21:07.451Z,208
2022-11-13T10:22:16.619Z,202
2022-11-13T10:23:25.905Z,202
2022-11-13T10:24:33.986Z,202
2022-11-13T10:25:43.250Z,202
2022-11-13T10:26:52.457Z,202
2022-11-13T10:28:01.508Z,202
2022-11-13T10:29:10.671Z,202
2022-11-13T10:30:19.835Z,202
2022-11-13T10:31:29.094Z,202
2022-11-13T10:32:38.197Z,202
2022-11-13T10:33:46.372Z,208
2022-11-13T10:34:55.594Z,208
2022-11-13T10:36:03.737Z,208
2022-11-13T10:37:11.931Z,208
2022-11-13T10:38:21.092Z,208
2022-11-13T10:39:30.402Z,208
2022-11-13T10:40:39.460Z,208
2022-11-13T10:41:48.620Z,208
2022-11-13T10:42:57.790Z,208
2022-11-13T10:44:06.959Z,208
2022-11-13T10:45:16.147Z,208
2022-11-13T10:46:24.323Z,208
2022-11-13T10:47:33.519Z,213
2022-11-13T10:48:42.672Z,208
2022-11-13T10:49:51.834Z,208
2022-11-13T10:51:01.014Z,208
2022-11-13T10:52:10.187Z,208
2022-11-13T10:53:19.384Z,208
2022-11-13T10:54:28.591Z,208
2022-11-13T10:55:37.694Z,213
2022-11-13T10:56:46.879Z,208
2022-11-13T10:57:56.041Z,208
2022-11-13T10:59:05.221Z,208
2022-11-13T11:00:13.416Z,208
2022-11-13T11:01:21.607Z,208
2022-11-13T11:02:30.890Z,208
2022-11-13T11:03:39.944Z,208
2022-11-13T11:04:48.139Z,202
2022-11-13T11:05:56.331Z,208
2022-11-13T11:07:05.492Z,208
2022-11-13T11:08:14.662Z,208
2022-11-13T11:09:23.850Z,208
2022-11-13T11:10:33.015Z,208
2022-11-13T11:11:42.183Z,208
2022-11-13T11:12:51.403Z,208
2022-11-13T11:14:00.520Z,208
2022-11-13T11:15:09.703Z,208
2022-11-13T11:16:18.919Z,208
2022-11-13T11:17:28.035Z,208
2022-11-13T11:18:37.219Z,208
2022-11-13T11:19:46.390Z,208
2022-11-13T11:20:54.599Z,208
2022-11-13T11:22:03.758Z,208
2022-11-13T11:23:12.928Z,208
2022-11-13T11:24:22.108Z,208
2022-11-13T11:25:31.263Z,208
2022-11-13T11:26:40.448Z,208
2022-11-13T11:27:49.611Z,208
2022-11-13T11:28:57.810Z,208
2022-11-13T11:30:05.999Z,208
2022-11-13T11:31:14.185Z,208
2022-11-13T11:32:22.472Z,208
2022-11-13T11:33:31.550Z,208
2022-11-13T11:34:40.786Z,208
2022-11-13T11:35:49.883Z,208
2022-11-13T11:36:59.062Z,213
2022-11-13T11:38:08.228Z,213
2022-11-13T11:39:17.413Z,213
2022-11-13T11:40:26.577Z,213
2022-11-13T11:41:35.765Z,213
2022-11-13T11:42:44.920Z,213
2022-11-13T11:43:54.097Z,213
2022-11-13T11:45:03.287Z,219
2022-11-13T11:46:12.448Z,230
2022-11-13T11:47:20.616Z,225
2022-11-13T11:48:29.797Z,236
2022-11-13T11:49:38.970Z,241
2022-11-13T11:50:48.173Z,253
2022-11-13T11:51:57.322Z,258
2022-11-13T11:53:06.492Z,264
2022-11-13T11:54:15.647Z,270
2022-11-13T11:55:23.850Z,270
2022-11-13T11:56:32.052Z,264
2022-11-13T11:57:40.244Z,264
2022-11-13T11:58:48.420Z,264
2022-11-13T11:59:57.595Z,264
2022-11-13T12:01:06.769Z,270
2022-11-13T12:02:15.933Z,270
2022-11-13T12:03:25.209Z,270
2022-11-13T12:04:34.293Z,275
2022-11-13T12:05:43.472Z,275
2022-11-13T12:08:01.801Z,270
2022-11-13T12:09:11.019Z,270
2022-11-13T12:10:20.143Z,275
2022-11-13T12:11:29.337Z,281
2022-11-13T12:12:38.490Z,286
2022-11-13T12:13:46.675Z,292
2022-11-13T12:14:55.889Z,303
2022-11-13T12:16:05.027Z,309
2022-11-13T12:17:14.186Z,320
2022-11-13T12:18:23.361Z,354
2022-11-13T12:19:32.569Z,399
2022-11-13T12:20:41.725Z,405
2022-11-13T12:21:50.899Z,393
2022-11-13T12:22:59.082Z,416
2022-11-13T12:24:07.265Z,483
2022-11-13T12:25:16.470Z,669
2022-11-13T12:26:25.624Z,838
2022-11-13T12:27:34.787Z,888
2022-11-13T12:28:43.964Z,770
2022-11-13T12:29:53.178Z,630
2022-11-13T12:31:02.304Z,517
2022-11-13T12:32:11.479Z,466
2022-11-13T12:33:20.643Z,585
2022-11-13T12:34:29.929Z,680
2022-11-13T12:35:39.032Z,618
2022-11-13T12:36:48.226Z,742
2022-11-13T12:37:57.353Z,804
2022-11-13T12:39:05.518Z,866
2022-11-13T12:40:14.688Z,978
2022-11-13T12:41:23.870Z,1136
2022-11-13T12:42:33.044Z,1141
2022-11-13T12:43:42.210Z,855
2022-11-13T12:44:51.372Z,759
2022-11-13T12:46:00.565Z,770
2022-11-13T12:47:08.743Z,1068
2022-11-13T12:48:16.941Z,1282
2022-11-13T12:49:25.329Z,1321
2022-11-13T12:50:33.342Z,1203
2022-11-13T12:51:42.485Z,1237
2022-11-13T12:52:51.657Z,1383
2022-11-13T12:54:00.839Z,1653
2022-11-13T12:55:10.001Z,1625
2022-11-13T12:56:19.205Z,1136
2022-11-13T12:57:28.345Z,1108
2022-11-13T12:58:37.524Z,928
2022-11-13T12:59:46.702Z,1001
2022-11-13T13:00:55.857Z,1181
2022-11-13T13:02:05.033Z,1136
2022-11-13T13:03:14.211Z,961
2022-11-13T13:04:23.389Z,1130
2022-11-13T13:05:31.568Z,1029
2022-11-13T13:06:40.755Z,1006
2022-11-13T13:07:49.911Z,1040
2022-11-13T13:08:59.084Z,1006
2022-11-13T13:10:08.250Z,956
2022-11-13T13:11:17.470Z,1057
2022-11-13T13:12:26.595Z,1074
2022-11-13T13:13:34.792Z,1192
2022-11-13T13:14:42.991Z,1215
2022-11-13T13:15:51.179Z,1018
2022-11-13T13:16:59.373Z,821
2022-11-13T13:18:08.549Z,826
2022-11-13T13:19:17.712Z,928
2022-11-13T13:20:26.884Z,1029
2022-11-13T13:21:36.062Z,804
2022-11-13T13:22:45.228Z,1035
2022-11-13T13:23:54.409Z,1018
2022-11-13T13:25:03.574Z,765
2022-11-13T13:26:12.743Z,810
2022-11-13T13:27:21.918Z,821
2022-11-13T13:28:31.095Z,810
2022-11-13T13:29:40.257Z,787
2022-11-13T13:30:49.450Z,714
2022-11-13T13:31:57.623Z,680
2022-11-13T13:33:06.794Z,686
2022-11-13T13:34:16.074Z,770
2022-11-13T13:35:25.219Z,877
2022-11-13T13:36:34.427Z,1040
2022-11-13T13:37:43.476Z,1462
2022-11-13T13:38:52.660Z,2351
2022-11-13T13:40:00.847Z,2818
2022-11-13T13:41:09.054Z,2373
2022-11-13T13:42:18.210Z,2036
2022-11-13T13:43:27.430Z,2036
2022-11-13T13:44:36.548Z,1603
2022-11-13T13:45:45.743Z,1558
2022-11-13T13:46:53.923Z,1501
2022-11-13T13:48:02.108Z,1400
2022-11-13T13:49:11.276Z,1321
2022-11-13T13:50:20.451Z,1147
2022-11-13T13:51:29.656Z,1209
2022-11-13T13:52:38.811Z,1293
2022-11-13T13:53:47.961Z,1383
2022-11-13T13:54:57.135Z,1440
2022-11-13T13:56:06.339Z,1428
2022-11-13T13:57:15.502Z,1350
2022-11-13T13:58:24.687Z,1411
2022-11-13T13:59:33.828Z,1366
2022-11-13T14:00:43.002Z,1209
2022-11-13T14:01:52.171Z,1282
2022-11-13T14:03:00.367Z,1260
2022-11-13T14:04:09.536Z,1198
2022-11-13T14:05:18.795Z,1350
2022-11-13T14:06:28.074Z,1293
2022-11-13T14:07:37.211Z,1209
2022-11-13T14:08:46.441Z,1310
2022-11-13T14:09:55.601Z,1276
2022-11-13T14:11:03.587Z,1141
2022-11-13T14:12:11.774Z,1085
2022-11-13T14:13:20.090Z,1125
2022-11-13T14:14:28.357Z,1265
2022-11-13T14:15:37.446Z,1147
2022-11-13T14:16:46.571Z,1063
2022-11-13T14:17:55.681Z,1209
2022-11-13T14:19:04.978Z,1130
2022-11-13T14:20:14.197Z,1192
2022-11-13T14:21:23.350Z,1141
2022-11-13T14:22:32.357Z,1141
2022-11-13T14:23:41.751Z,1113
2022-11-13T14:24:50.858Z,961
2022-11-13T14:27:09.207Z,483
2022-11-13T14:28:18.441Z,399
2022-11-13T14:29:26.567Z,163
2022-11-13T14:30:35.584Z,213
2022-11-13T14:31:44.760Z,247
2022-11-13T14:32:54.144Z,174
2022-11-13T14:34:03.257Z,146
2022-11-13T14:35:12.414Z,146
2022-11-13T14:36:21.618Z,140
2022-11-13T14:37:29.753Z,241
2022-11-13T14:38:38.797Z,253
2022-11-13T14:39:47.127Z,191
2022-11-13T14:40:55.478Z,157
2022-11-13T14:42:03.601Z,95
2022-11-13T14:43:12.662Z,101
2022-11-13T14:44:20.911Z,95
2022-11-13T14:45:30.154Z,106
2022-11-13T14:46:39.076Z,118
2022-11-13T14:47:48.467Z,191
2022-11-13T14:48:57.609Z,258
2022-11-13T14:50:06.693Z,331
2022-11-13T14:51:15.937Z,472
2022-11-13T14:52:24.963Z,528
2022-11-13T14:53:34.351Z,348
2022-11-13T14:54:43.288Z,106
2022-11-13T14:55:52.523Z,135
2022-11-13T14:57:01.775Z,140
2022-11-13T14:59:20.217Z,95
2022-11-13T15:00:28.416Z,84
2022-11-13T15:01:37.480Z,90
2022-11-13T15:02:46.727Z,73
2022-11-13T15:03:55.872Z,73
2022-11-13T15:05:05.069Z,84
2022-11-13T15:06:14.274Z,84
2022-11-13T15:07:22.273Z,67
2022-11-13T15:08:30.561Z,56
2022-11-13T15:09:39.810Z,50
2022-11-13T15:10:48.757Z,50
2022-11-13T15:11:58.114Z,50
2022-11-13T15:13:06.307Z,45
2022-11-13T15:14:14.454Z,45
2022-11-13T15:15:23.483Z,39
2022-11-13T15:16:32.848Z,39
2022-11-13T15:17:41.963Z,39
2022-11-13T15:18:51.160Z,39
2022-11-13T15:20:00.297Z,33
2022-11-13T15:21:09.563Z,33
2022-11-13T15:22:18.704Z,33
2022-11-13T15:23:27.850Z,33
2022-11-13T15:24:37.051Z,28
2022-11-13T15:25:46.227Z,28
2022-11-13T15:26:55.215Z,28
2022-11-13T15:28:04.533Z,28
2022-11-13T15:29:12.823Z,22
2022-11-13T15:30:21.943Z,22
2022-11-13T15:31:31.008Z,22
2022-11-13T15:32:40.312Z,22
2022-11-13T15:33:49.264Z,22
2022-11-13T15:34:58.578Z,16
2022-11-13T15:36:07.793Z,16
2022-11-13T15:37:16.926Z,16
2022-11-13T15:38:26.205Z,16
2022-11-13T15:39:35.286Z,11
2022-11-13T15:40:44.476Z,11
2022-11-13T15:41:53.662Z,11
2022-11-13T15:43:02.820Z,11
2022-11-13T15:44:10.998Z,11
2022-11-13T15:45:20.236Z,11
2022-11-13T15:46:29.429Z,5
2022-11-13T15:47:38.518Z,5
2022-11-13T15:48:47.718Z,5
2022-11-13T15:49:56.884Z,5
2022-11-13T15:51:06.091Z,5
2022-11-13T15:52:15.197Z,5
2022-11-13T15:53:24.291Z,5
2022-11-13T15:54:33.563Z,0
2022-11-13T15:55:42.716Z,0
2022-11-13T15:56:51.908Z,0
2022-11-13T15:58:01.144Z,0
2022-11-13T15:59:09.265Z,0
2022-11-13T16:00:17.277Z,0
2022-11-13T16:01:25.712Z,0
2022-11-13T16:02:34.806Z,0
2022-11-13T16:03:43.955Z,0
2022-11-13T16:04:52.160Z,0
2022-11-13T16:06:00.353Z,0
2022-11-13T16:07:09.525Z,0
2022-11-13T16:08:18.774Z,0
2022-11-13T16:09:27.893Z,0
2022-11-13T16:10:37.065Z,0
2022-11-13T16:11:46.218Z,0
2022-11-13T16:12:55.416Z,0
2022-11-13T16:14:04.575Z,0
2022-11-13T16:15:13.561Z,0
2022-11-13T16:16:22.911Z,0
2022-11-13T16:17:32.078Z,0
2022-11-13T16:18:41.264Z,0
2022-11-13T16:19:50.415Z,0
2022-11-13T16:20:58.448Z,0
2022-11-13T16:22:07.767Z,0
2022-11-13T16:23:16.786Z,0
2022-11-13T16:24:25.967Z,0
2022-11-13T16:25:35.239Z,0
2022-11-13T16:26:44.303Z,0
2022-11-13T16:27:53.483Z,0
2022-11-13T16:29:01.852Z,0
2022-11-13T16:30:09.992Z,0